createdAt,value
2017-02-23T00:00:25.703Z,7.98
2017-02-23T00:01:06.327Z,7.95
2017-02-23T00:01:46.979Z,8.01
2017-02-23T00:02:27.696Z,8.03
2017-02-23T00:03:08.329Z,8.01
2017-02-23T00:03:48.957Z,8.05
2017-02-23T00:04:29.547Z,8.01
2017-02-23T00:05:10.171Z,8
2017-02-23T00:05:50.797Z,8.01
2017-02-23T00:06:31.474Z,8.01
2017-02-23T00:07:12.135Z,8.03
2017-02-23T00:07:52.775Z,8.05
2017-02-23T00:08:33.413Z,8
2017-02-23T00:09:14.045Z,8
2017-02-23T00:09:54.704Z,7.97
2017-02-23T00:10:35.402Z,8.01
2017-02-23T00:11:16.042Z,8.03
2017-02-23T00:11:56.689Z,8.01
2017-02-23T00:12:37.364Z,7.97
2017-02-23T00:13:18.021Z,8
2017-02-23T00:13:58.665Z,8.08
2017-02-23T00:14:39.297Z,8.08
2017-02-23T00:15:19.911Z,7.94
2017-02-23T00:16:00.659Z,7.94
2017-02-23T00:16:41.375Z,8.03
2017-02-23T00:17:22.024Z,8.01
2017-02-23T00:18:02.648Z,8.05
2017-02-23T00:18:43.295Z,8.03
2017-02-23T00:19:24.075Z,8.05
2017-02-23T00:20:04.622Z,7.98
2017-02-23T00:20:45.278Z,8.06
2017-02-23T00:21:25.994Z,8.01
2017-02-23T00:22:06.633Z,8.03
2017-02-23T00:22:47.244Z,8.05
2017-02-23T00:23:27.856Z,7.98
2017-02-23T00:24:08.489Z,7.97
2017-02-23T00:24:49.119Z,7.97
2017-02-23T00:25:29.786Z,8
2017-02-23T00:26:10.454Z,8.05
2017-02-23T00:26:51.057Z,7.94
2017-02-23T00:27:31.707Z,8.05
2017-02-23T00:28:12.314Z,8.08
2017-02-23T00:28:52.958Z,8
2017-02-23T00:29:33.600Z,7.97
2017-02-23T00:30:14.270Z,7.97
2017-02-23T00:30:54.887Z,7.97
2017-02-23T00:31:35.584Z,8.03
2017-02-23T00:32:16.207Z,7.97
2017-02-23T00:32:56.904Z,7.98
2017-02-23T00:33:37.553Z,8.08
2017-02-23T00:34:18.169Z,8.05
2017-02-23T00:34:58.771Z,8.01
2017-02-23T00:35:39.386Z,7.98
2017-02-23T00:36:19.987Z,8.03
2017-02-23T00:37:00.580Z,8.01
2017-02-23T00:37:41.210Z,8.03
2017-02-23T00:38:21.890Z,8.05
2017-02-23T00:39:02.526Z,8
2017-02-23T00:39:43.215Z,7.98
2017-02-23T00:40:23.896Z,7.97
2017-02-23T00:41:04.567Z,8.05
2017-02-23T00:41:45.328Z,7.98
2017-02-23T00:42:25.947Z,8.05
2017-02-23T00:43:06.628Z,8.01
2017-02-23T00:43:47.236Z,8
2017-02-23T00:44:27.837Z,8.05
2017-02-23T00:45:08.493Z,8
2017-02-23T00:45:49.092Z,8.01
2017-02-23T00:46:29.711Z,7.98
2017-02-23T00:47:10.314Z,7.98
2017-02-23T00:47:50.962Z,8.01
2017-02-23T00:48:31.567Z,8.01
2017-02-23T00:49:12.270Z,8.09
2017-02-23T00:49:52.891Z,8.03
2017-02-23T00:50:33.578Z,8.01
2017-02-23T00:51:14.237Z,8.03
2017-02-23T00:51:54.907Z,8.1
2017-02-23T00:52:35.576Z,8.1
2017-02-23T00:53:16.146Z,8
2017-02-23T00:53:56.878Z,8.05
2017-02-23T00:54:37.508Z,8.09
2017-02-23T00:55:18.131Z,7.98
2017-02-23T00:55:58.824Z,8.08
2017-02-23T00:56:39.414Z,8.06
2017-02-23T00:57:20.035Z,8.06
2017-02-23T00:58:00.687Z,8.09
2017-02-23T00:58:41.265Z,8.08
2017-02-23T00:59:21.981Z,8.05
2017-02-23T01:00:02.795Z,8.12
2017-02-23T01:00:43.410Z,8.06
2017-02-23T01:01:24.059Z,8.1
2017-02-23T01:02:04.666Z,8.06
2017-02-23T01:02:45.290Z,8.06
2017-02-23T01:03:25.881Z,8.06
2017-02-23T01:04:06.589Z,8.12
2017-02-23T01:04:47.286Z,8.12
2017-02-23T01:05:27.871Z,8.09
2017-02-23T01:06:08.506Z,8.06
2017-02-23T01:06:49.173Z,8.09
2017-02-23T01:07:29.818Z,8.06
2017-02-23T01:08:10.461Z,8.12
2017-02-23T01:08:51.161Z,8.09
2017-02-23T01:09:31.790Z,8.09
2017-02-23T01:10:12.395Z,8.06
2017-02-23T01:10:53.048Z,8.09
2017-02-23T01:11:33.736Z,8.1
2017-02-23T01:12:14.356Z,8.03
2017-02-23T01:12:55.018Z,8.05
2017-02-23T01:13:35.708Z,8.12
2017-02-23T01:14:16.368Z,8.08
2017-02-23T01:14:56.982Z,8.09
2017-02-23T01:15:37.630Z,8.09
2017-02-23T01:16:18.370Z,8.13
2017-02-23T01:16:58.966Z,8.12
2017-02-23T01:17:39.605Z,8.15
2017-02-23T01:18:20.232Z,8.13
2017-02-23T01:19:00.890Z,8.15
2017-02-23T01:19:41.575Z,8.15
2017-02-23T01:20:22.167Z,8.12
2017-02-23T01:21:02.793Z,8.09
2017-02-23T01:21:43.411Z,8.13
2017-02-23T01:22:24.088Z,8.1
2017-02-23T01:23:04.708Z,8.09
2017-02-23T01:23:45.365Z,8.1
2017-02-23T01:24:26.033Z,8.09
2017-02-23T01:25:06.714Z,8.13
2017-02-23T01:25:47.324Z,8.15
2017-02-23T01:26:28.042Z,8.16
2017-02-23T01:27:08.723Z,8.06
2017-02-23T01:27:49.346Z,8.12
2017-02-23T01:28:30.026Z,8.15
2017-02-23T01:29:10.685Z,8.08
2017-02-23T01:29:51.331Z,8.15
2017-02-23T01:30:31.914Z,8.1
2017-02-23T01:31:12.548Z,8.12
2017-02-23T01:31:53.170Z,8.1
2017-02-23T01:32:33.836Z,8.1
2017-02-23T01:33:14.486Z,8.16
2017-02-23T01:33:55.104Z,8.16
2017-02-23T01:34:35.711Z,8.16
2017-02-23T01:35:16.402Z,8.08
2017-02-23T01:35:57.019Z,8.09
2017-02-23T01:36:37.821Z,8.15
2017-02-23T01:37:18.447Z,8.15
2017-02-23T01:37:59.046Z,8.06
2017-02-23T01:38:39.753Z,8.13
2017-02-23T01:39:20.405Z,8.13
2017-02-23T01:40:01.047Z,8.13
2017-02-23T01:40:41.677Z,8.19
2017-02-23T01:41:22.340Z,8.18
2017-02-23T01:42:02.996Z,8.13
2017-02-23T01:42:43.693Z,8.06
2017-02-23T01:43:24.338Z,8.18
2017-02-23T01:44:04.978Z,8.19
2017-02-23T01:44:45.607Z,8.23
2017-02-23T01:45:26.276Z,8.19
2017-02-23T01:46:06.902Z,8.13
2017-02-23T01:46:47.506Z,8.16
2017-02-23T01:47:28.154Z,8.19
2017-02-23T01:48:08.828Z,8.18
2017-02-23T01:48:49.433Z,8.13
2017-02-23T01:49:30.117Z,8.2
2017-02-23T01:50:10.729Z,8.16
2017-02-23T01:50:51.368Z,8.19
2017-02-23T01:51:32.013Z,8.18
2017-02-23T01:52:12.600Z,8.18
2017-02-23T01:52:53.187Z,8.13
2017-02-23T01:53:33.827Z,8.16
2017-02-23T01:54:14.500Z,8.13
2017-02-23T01:54:55.126Z,8.15
2017-02-23T01:55:35.773Z,8.15
2017-02-23T01:56:16.429Z,8.19
2017-02-23T01:56:57.094Z,8.12
2017-02-23T01:57:37.736Z,8.16
2017-02-23T01:58:18.381Z,8.16
2017-02-23T01:58:59.042Z,8.19
2017-02-23T02:03:40.763Z,8.15
2017-02-23T02:04:21.369Z,8.13
2017-02-23T02:05:02.039Z,8.19
2017-02-23T02:05:42.680Z,8.18
2017-02-23T02:06:23.330Z,8.15
2017-02-23T02:07:03.979Z,8.13
2017-02-23T02:07:45.663Z,8.13
2017-02-23T02:08:26.311Z,8.23
2017-02-23T02:09:08.017Z,8.13
2017-02-23T02:09:50.694Z,8.13
2017-02-23T02:10:31.348Z,8.13
2017-02-23T02:11:11.998Z,8.12
2017-02-23T02:11:52.650Z,8.23
2017-02-23T02:12:33.304Z,8.13
2017-02-23T02:13:13.958Z,8.16
2017-02-23T02:13:54.602Z,8.18
2017-02-23T02:14:35.260Z,8.13
2017-02-23T02:15:15.915Z,8.2
2017-02-23T02:15:56.570Z,8.12
2017-02-23T02:16:37.322Z,8.13
2017-02-23T02:17:17.985Z,8.15
2017-02-23T02:17:58.639Z,8.12
2017-02-23T02:18:39.292Z,8.1
2017-02-23T02:19:19.920Z,8.13
2017-02-23T02:20:00.497Z,8.15
2017-02-23T02:20:41.137Z,8.23
2017-02-23T02:21:21.770Z,8.15
2017-02-23T02:22:02.361Z,8.13
2017-02-23T02:22:43.001Z,8.15
2017-02-23T02:23:23.623Z,8.13
2017-02-23T02:24:04.207Z,8.1
2017-02-23T02:24:44.853Z,8.16
2017-02-23T02:25:25.485Z,8.13
2017-02-23T02:26:06.064Z,8.12
2017-02-23T02:26:46.717Z,8.13
2017-02-23T02:27:27.342Z,8.16
2017-02-23T02:28:07.931Z,8.16
2017-02-23T02:28:48.582Z,8.13
2017-02-23T02:29:29.228Z,8.15
2017-02-23T02:30:09.875Z,8.16
2017-02-23T02:30:50.527Z,8.24
2017-02-23T02:31:31.182Z,8.09
2017-02-23T02:32:11.837Z,8.13
2017-02-23T02:32:52.483Z,8.19
2017-02-23T02:33:33.142Z,8.13
2017-02-23T02:34:13.821Z,8.15
2017-02-23T02:34:54.530Z,8.12
2017-02-23T02:35:35.110Z,8.3
2017-02-23T02:36:15.752Z,8.23
2017-02-23T02:36:56.433Z,8.13
2017-02-23T02:37:37.144Z,8.13
2017-02-23T02:38:17.719Z,8.13
2017-02-23T02:38:58.365Z,8.15
2017-02-23T02:39:38.986Z,8.15
2017-02-23T02:40:19.671Z,8.12
2017-02-23T02:41:00.325Z,8.13
2017-02-23T02:41:40.976Z,8.16
2017-02-23T02:42:21.619Z,8.15
2017-02-23T02:43:02.274Z,8.15
2017-02-23T02:43:42.929Z,8.15
2017-02-23T02:44:23.589Z,8.15
2017-02-23T02:45:04.239Z,8.12
2017-02-23T02:45:44.894Z,8.16
2017-02-23T02:46:25.546Z,8.13
2017-02-23T02:47:06.201Z,8.27
2017-02-23T02:47:46.852Z,8.12
2017-02-23T02:48:27.504Z,8.13
2017-02-23T02:49:08.156Z,8.16
2017-02-23T02:49:48.816Z,8.24
2017-02-23T02:50:29.465Z,8.23
2017-02-23T02:51:10.115Z,8.19
2017-02-23T02:51:50.767Z,8.15
2017-02-23T02:52:31.431Z,8.12
2017-02-23T02:53:12.075Z,8.16
2017-02-23T02:53:52.727Z,8.15
2017-02-23T02:54:33.359Z,8.24
2017-02-23T02:55:13.935Z,8.24
2017-02-23T02:55:54.585Z,8.16
2017-02-23T02:56:35.216Z,8.15
2017-02-23T02:57:15.779Z,8.13
2017-02-23T02:57:56.445Z,8.13
2017-02-23T02:58:37.071Z,8.26
2017-02-23T02:59:17.622Z,8.13
2017-02-23T02:59:58.296Z,8.23
2017-02-23T03:00:38.982Z,8.15
2017-02-23T03:01:19.564Z,8.15
2017-02-23T03:02:00.239Z,8.23
2017-02-23T03:02:40.787Z,8.16
2017-02-23T03:03:21.462Z,8.27
2017-02-23T03:04:02.148Z,8.18
2017-02-23T03:04:42.767Z,8.15
2017-02-23T03:05:23.411Z,8.1
2017-02-23T03:06:04.076Z,8.19
2017-02-23T03:06:44.727Z,8.26
2017-02-23T03:07:25.380Z,8.13
2017-02-23T03:08:07.057Z,8.16
2017-02-23T03:08:47.697Z,8.27
2017-02-23T03:09:28.355Z,8.13
2017-02-23T03:10:08.998Z,8.28
2017-02-23T03:10:49.640Z,8.13
2017-02-23T03:11:30.322Z,8.15
2017-02-23T03:12:10.979Z,8.12
2017-02-23T03:12:51.631Z,8.13
2017-02-23T03:13:32.275Z,8.13
2017-02-23T03:14:12.934Z,8.15
2017-02-23T03:14:53.587Z,8.12
2017-02-23T03:15:34.233Z,8.13
2017-02-23T03:16:14.891Z,8.13
2017-02-23T03:16:55.544Z,8.15
2017-02-23T03:17:36.196Z,8.18
2017-02-23T03:18:16.851Z,8.16
2017-02-23T03:18:57.497Z,8.13
2017-02-23T03:19:38.196Z,8.2
2017-02-23T03:20:18.887Z,8.28
2017-02-23T03:20:59.461Z,8.13
2017-02-23T03:21:40.109Z,8.18
2017-02-23T03:22:20.809Z,8.15
2017-02-23T03:23:01.503Z,8.15
2017-02-23T03:23:42.080Z,8.1
2017-02-23T03:24:22.714Z,8.15
2017-02-23T03:25:03.306Z,8.15
2017-02-23T03:25:44.012Z,8.27
2017-02-23T03:26:24.576Z,8.19
2017-02-23T03:27:05.239Z,8.24
2017-02-23T03:27:45.922Z,8.15
2017-02-23T03:28:26.625Z,8.13
2017-02-23T03:29:07.192Z,8.16
2017-02-23T03:29:47.847Z,8.16
2017-02-23T03:30:28.535Z,8.13
2017-02-23T03:31:09.237Z,8.19
2017-02-23T03:31:49.812Z,8.13
2017-02-23T03:32:30.455Z,8.16
2017-02-23T03:33:11.148Z,8.19
2017-02-23T03:33:51.727Z,8.31
2017-02-23T03:34:32.385Z,8.16
2017-02-23T03:35:13.057Z,8.23
2017-02-23T03:35:53.627Z,8.13
2017-02-23T03:36:34.269Z,8.15
2017-02-23T03:37:14.909Z,8.27
2017-02-23T03:37:55.478Z,8.16
2017-02-23T03:38:36.126Z,8.13
2017-02-23T03:39:16.764Z,8.12
2017-02-23T03:39:57.339Z,8.13
2017-02-23T03:40:37.984Z,8.13
2017-02-23T03:41:18.682Z,8.16
2017-02-23T03:41:59.371Z,8.13
2017-02-23T03:42:39.940Z,8.16
2017-02-23T03:43:20.606Z,8.16
2017-02-23T03:44:01.192Z,8.18
2017-02-23T03:44:41.903Z,8.16
2017-02-23T03:45:22.570Z,8.15
2017-02-23T03:46:03.215Z,8.13
2017-02-23T03:46:44.942Z,8.18
2017-02-23T03:47:25.645Z,8.16
2017-02-23T03:48:06.336Z,8.15
2017-02-23T03:48:46.946Z,8.16
2017-02-23T03:49:28.657Z,8.16
2017-02-23T03:50:09.361Z,8.18
2017-02-23T03:50:49.929Z,8.1
2017-02-23T03:51:31.607Z,8.18
2017-02-23T03:52:12.298Z,8.13
2017-02-23T03:52:53.015Z,8.18
2017-02-23T03:53:33.584Z,8.16
2017-02-23T03:54:14.224Z,8.12
2017-02-23T03:54:54.855Z,8.18
2017-02-23T03:55:35.422Z,8.18
2017-02-23T03:56:17.109Z,8.18
2017-02-23T03:56:57.738Z,8.13
2017-02-23T03:57:38.313Z,8.15
2017-02-23T03:58:18.967Z,8.15
2017-02-23T03:59:01.642Z,8.16
2017-02-23T03:59:42.203Z,8.18
2017-02-23T04:00:22.859Z,8.15
2017-02-23T04:01:03.561Z,8.16
2017-02-23T04:01:50.197Z,8.19
2017-02-23T04:02:30.756Z,8.16
2017-02-23T04:03:11.424Z,8.13
2017-02-23T04:03:53.131Z,8.1
2017-02-23T04:04:33.860Z,8.13
2017-02-23T04:05:14.502Z,8.13
2017-02-23T04:05:55.162Z,8.15
2017-02-23T04:06:35.797Z,8.16
2017-02-23T04:07:16.457Z,8.12
2017-02-23T04:07:58.134Z,8.19
2017-02-23T04:08:38.781Z,8.19
2017-02-23T04:09:19.449Z,8.1
2017-02-23T04:10:00.101Z,8.18
2017-02-23T04:10:40.758Z,8.16
2017-02-23T04:11:21.424Z,8.18
2017-02-23T04:12:02.052Z,8.12
2017-02-23T04:12:42.713Z,8.18
2017-02-23T04:13:23.356Z,8.15
2017-02-23T04:14:04.020Z,8.18
2017-02-23T04:14:44.670Z,8.12
2017-02-23T04:15:44.052Z,8.15
2017-02-23T04:16:27.168Z,8.13
2017-02-23T05:27:17.712Z,8.44
2017-02-23T05:28:04.863Z,8.38
2017-02-23T05:28:50.443Z,8.37
2017-02-23T05:29:44.060Z,8.45
2017-02-23T05:30:24.618Z,8.51
2017-02-23T05:31:07.209Z,8.44
2017-02-23T05:32:03.581Z,8.52
2017-02-23T05:32:44.137Z,8.48
2017-02-23T05:33:24.798Z,8.52
2017-02-23T05:34:06.423Z,8.49
2017-02-23T05:34:51.574Z,8.61
2017-02-23T05:35:43.130Z,8.51
2017-02-23T05:36:28.616Z,8.64
2017-02-23T05:41:42.280Z,8.63
2017-02-23T05:42:22.867Z,8.66
2017-02-23T05:43:09.144Z,8.7
2017-02-23T05:43:49.789Z,8.71
2017-02-23T05:44:42.161Z,8.74
2017-02-23T05:45:22.762Z,8.71
2017-02-23T05:46:08.142Z,8.71
2017-02-23T05:46:53.592Z,8.73
2017-02-23T05:47:50.192Z,8.67
2017-02-23T05:52:46.029Z,8.78
2017-02-23T05:53:27.649Z,8.82
2017-02-23T05:54:08.277Z,8.85
2017-02-23T05:54:54.562Z,8.79
2017-02-23T05:55:35.128Z,8.82
2017-02-23T05:56:15.770Z,8.73
2017-02-23T05:56:56.371Z,8.78
2017-02-23T05:57:42.619Z,8.76
2017-02-23T05:58:23.160Z,8.79
2017-02-23T05:59:09.335Z,8.79
2017-02-23T05:59:50.055Z,8.78
2017-02-23T06:00:32.644Z,8.76
2017-02-23T06:01:14.230Z,8.78
2017-02-23T06:01:54.892Z,8.81
2017-02-23T06:02:35.747Z,8.76
2017-02-23T06:03:16.338Z,8.74
2017-02-23T06:04:02.686Z,8.71
2017-02-23T06:04:43.272Z,8.78
2017-02-23T06:05:23.879Z,8.82
2017-02-23T06:06:04.501Z,8.78
2017-02-23T06:06:46.112Z,8.78
2017-02-23T06:07:26.698Z,8.78
2017-02-23T06:08:07.282Z,8.81
2017-02-23T06:08:48.958Z,8.87
2017-02-23T06:09:31.606Z,8.74
2017-02-23T06:10:12.226Z,8.76
2017-02-23T06:10:58.766Z,8.71
2017-02-23T06:11:54.281Z,8.71
2017-02-23T06:12:40.744Z,8.76
2017-02-23T06:13:23.441Z,8.81
2017-02-23T06:14:04.087Z,8.81
2017-02-23T06:14:44.772Z,8.85
2017-02-23T06:15:25.350Z,8.78
2017-02-23T06:16:17.873Z,8.74
2017-02-23T06:17:05.231Z,8.78
2017-02-23T06:17:48.009Z,8.78
2017-02-23T06:18:28.599Z,8.85
2017-02-23T06:19:09.183Z,8.74
2017-02-23T06:19:49.859Z,8.79
2017-02-23T06:20:30.460Z,8.79
2017-02-23T06:21:11.057Z,8.78
2017-02-23T06:23:53.506Z,8.85
2017-02-23T06:24:34.092Z,8.84
2017-02-23T06:25:25.245Z,8.78
2017-02-23T06:26:06.072Z,8.85
2017-02-23T06:26:46.623Z,8.82
2017-02-23T06:27:41.901Z,8.84
2017-02-23T06:28:22.498Z,8.79
2017-02-23T06:29:05.306Z,8.76
2017-02-23T06:29:45.858Z,8.79
2017-02-23T06:30:31.462Z,8.79
2017-02-23T06:31:12.112Z,8.81
2017-02-23T06:31:52.679Z,8.69
2017-02-23T06:32:34.407Z,8.76
2017-02-23T06:33:14.983Z,8.79
2017-02-23T06:33:55.561Z,8.73
2017-02-23T06:34:36.243Z,8.78
2017-02-23T06:35:16.893Z,8.81
2017-02-23T06:35:57.546Z,8.79
2017-02-23T06:36:43.110Z,8.7
2017-02-23T06:37:25.786Z,8.64
2017-02-23T06:38:06.393Z,8.74
2017-02-23T06:38:58.988Z,8.71
2017-02-23T06:39:40.741Z,8.66
2017-02-23T06:40:21.357Z,8.69
2017-02-23T06:41:14.991Z,8.73
2017-02-23T06:42:10.290Z,8.63
2017-02-23T06:42:50.994Z,8.73
2017-02-23T06:43:31.611Z,8.73
2017-02-23T06:44:12.244Z,8.71
2017-02-23T06:44:54.851Z,8.66
2017-02-23T06:45:40.151Z,8.7
2017-02-23T06:46:20.783Z,8.66
2017-02-23T06:47:02.487Z,8.71
2017-02-23T06:47:43.237Z,8.69
2017-02-23T06:48:23.890Z,8.67
2017-02-23T06:49:04.486Z,8.73
2017-02-23T06:49:45.123Z,8.66
2017-02-23T06:50:31.755Z,8.73
2017-02-23T06:51:12.497Z,8.7
2017-02-23T06:51:53.089Z,8.73
2017-02-23T06:52:34.701Z,8.71
2017-02-23T06:53:26.223Z,8.69
2017-02-23T06:54:08.937Z,8.67
2017-02-23T06:54:55.158Z,8.71
2017-02-23T06:55:46.679Z,8.71
2017-02-23T06:56:27.316Z,8.74
2017-02-23T06:57:22.623Z,8.7
2017-02-23T06:58:09.185Z,8.73
2017-02-23T06:58:49.755Z,8.67
2017-02-23T06:59:30.363Z,8.69
2017-02-23T07:00:10.998Z,8.67
2017-02-23T07:00:51.577Z,8.66
2017-02-23T07:01:32.162Z,8.74
2017-02-23T07:02:12.752Z,8.69
2017-02-23T07:02:53.396Z,8.7
2017-02-23T07:03:34.102Z,8.67
2017-02-23T07:04:14.781Z,8.7
2017-02-23T07:04:55.411Z,8.74
2017-02-23T07:05:36.131Z,8.61
2017-02-23T07:06:16.768Z,8.64
2017-02-23T07:06:58.483Z,8.71
2017-02-23T07:07:39.132Z,8.67
2017-02-23T07:08:25.482Z,8.7
2017-02-23T07:09:06.099Z,8.63
2017-02-23T07:09:46.768Z,8.67
2017-02-23T07:10:27.355Z,8.66
2017-02-23T07:11:09.018Z,8.7
2017-02-23T07:11:49.805Z,8.78
2017-02-23T07:12:30.380Z,8.7
2017-02-23T07:13:11.156Z,8.66
2017-02-23T07:13:53.741Z,8.69
2017-02-23T07:14:34.327Z,8.67
2017-02-23T07:15:14.973Z,8.66
2017-02-23T07:15:55.625Z,8.73
2017-02-23T07:16:36.279Z,8.67
2017-02-23T07:17:17.994Z,8.69
2017-02-23T07:18:00.715Z,8.64
2017-02-23T07:18:41.453Z,8.67
2017-02-23T07:19:22.228Z,8.63
2017-02-23T07:20:03.942Z,8.64
2017-02-23T07:20:45.716Z,8.64
2017-02-23T07:21:27.477Z,8.6
2017-02-23T07:22:09.157Z,8.55
2017-02-23T07:22:49.997Z,8.66
2017-02-23T07:23:31.692Z,8.61
2017-02-23T07:24:12.409Z,8.67
2017-02-23T07:24:55.223Z,8.63
2017-02-23T07:25:36.990Z,8.66
2017-02-23T07:26:17.685Z,8.69
2017-02-23T07:26:58.435Z,8.64
2017-02-23T07:27:41.211Z,8.58
2017-02-23T07:28:21.992Z,8.64
2017-02-23T07:29:02.741Z,8.63
2017-02-23T07:29:44.530Z,8.61
2017-02-23T07:30:25.319Z,8.61
2017-02-23T07:31:08.103Z,8.63
2017-02-23T07:31:48.900Z,8.63
2017-02-23T07:32:29.574Z,8.61
2017-02-23T07:33:10.378Z,8.61
2017-02-23T07:33:52.135Z,8.6
2017-02-23T07:34:33.788Z,8.64
2017-02-23T07:35:16.469Z,8.52
2017-02-23T07:36:02.012Z,8.67
2017-02-23T07:36:47.506Z,8.6
2017-02-23T07:37:28.151Z,8.66
2017-02-23T07:38:08.901Z,8.66
2017-02-23T07:38:49.536Z,8.61
2017-02-23T07:39:31.158Z,8.64
2017-02-23T07:40:11.971Z,8.63
2017-02-23T07:40:53.643Z,8.64
2017-02-23T07:41:39.964Z,8.64
2017-02-23T07:42:22.709Z,8.63
2017-02-23T07:43:08.089Z,8.58
2017-02-23T07:43:49.833Z,8.63
2017-02-23T07:44:30.529Z,8.64
2017-02-23T07:45:12.326Z,8.6
2017-02-23T07:45:55.022Z,8.56
2017-02-23T07:46:36.695Z,8.63
2017-02-23T07:47:18.383Z,8.67
2017-02-23T07:48:00.031Z,8.66
2017-02-23T07:48:45.499Z,8.61
2017-02-23T07:49:26.149Z,8.64
2017-02-23T07:50:06.847Z,8.63
2017-02-23T07:50:48.568Z,8.61
2017-02-23T07:51:29.361Z,8.64
2017-02-23T07:52:16.017Z,8.61
2017-02-23T07:52:56.691Z,8.56
2017-02-23T07:53:37.536Z,8.48
2017-02-23T07:54:22.914Z,8.64
2017-02-23T07:55:05.790Z,8.64
2017-02-23T07:55:46.459Z,8.63
2017-02-23T07:56:29.177Z,8.58
2017-02-23T07:57:14.484Z,8.64
2017-02-23T07:57:55.096Z,8.61
2017-02-23T07:58:36.797Z,8.66
2017-02-23T07:59:18.546Z,8.64
2017-02-23T08:00:05.940Z,8.63
2017-02-23T08:00:51.497Z,8.56
2017-02-23T08:01:36.976Z,8.58
2017-02-23T08:02:28.498Z,8.58
2017-02-23T08:03:21.031Z,8.61
2017-02-23T08:04:03.725Z,8.64
2017-02-23T08:04:45.416Z,8.45
2017-02-23T08:05:26.053Z,8.58
2017-02-23T08:06:08.696Z,8.6
2017-02-23T08:06:49.280Z,8.52
2017-02-23T08:07:29.943Z,8.55
2017-02-23T08:08:17.198Z,8.55
2017-02-23T08:08:59.908Z,8.51
2017-02-23T08:09:40.535Z,8.66
2017-02-23T08:10:27.022Z,8.61
2017-02-23T08:11:08.680Z,8.49
2017-02-23T08:11:49.328Z,8.48
2017-02-23T08:12:34.487Z,8.53
2017-02-23T08:13:15.149Z,8.51
2017-02-23T08:18:03.482Z,8.52
2017-02-23T08:18:45.124Z,8.52
2017-02-23T08:19:31.621Z,8.52
2017-02-23T08:20:12.216Z,8.49
2017-02-23T08:20:52.837Z,8.53
2017-02-23T08:21:33.631Z,8.51
2017-02-23T08:22:20.819Z,8.49
2017-02-23T08:23:03.595Z,8.48
2017-02-23T08:23:44.268Z,8.55
2017-02-23T08:24:25.010Z,8.51
2017-02-23T08:25:05.977Z,8.51
2017-02-23T08:25:47.542Z,8.49
2017-02-23T08:26:29.715Z,8.51
2017-02-23T08:27:10.607Z,8.49
2017-02-23T08:27:51.692Z,8.55
2017-02-23T08:28:33.068Z,8.55
2017-02-23T08:29:15.195Z,8.48
2017-02-23T08:29:56.486Z,8.53
2017-02-23T08:30:40.242Z,8.51
2017-02-23T08:31:21.676Z,8.53
2017-02-23T08:32:02.922Z,8.56
2017-02-23T08:32:43.945Z,8.48
2017-02-23T08:33:26.335Z,8.56
2017-02-23T08:34:07.196Z,8.52
2017-02-23T08:34:47.991Z,8.51
2017-02-23T08:35:28.718Z,8.52
2017-02-23T08:36:09.498Z,8.53
2017-02-23T08:36:50.170Z,8.49
2017-02-23T08:37:30.949Z,8.52
2017-02-23T08:38:11.756Z,8.49
2017-02-23T08:38:52.524Z,8.52
2017-02-23T08:39:33.195Z,8.56
2017-02-23T08:40:13.997Z,8.56
2017-02-23T08:40:55.089Z,8.49
2017-02-23T08:41:36.020Z,8.49
2017-02-23T08:42:17.010Z,8.48
2017-02-23T08:42:57.800Z,8.51
2017-02-23T08:43:38.479Z,8.58
2017-02-23T08:44:19.349Z,8.58
2017-02-23T08:45:00.023Z,8.56
2017-02-23T08:45:41.416Z,8.45
2017-02-23T08:46:22.122Z,8.55
2017-02-23T08:47:03.490Z,8.55
2017-02-23T08:47:44.442Z,8.51
2017-02-23T08:48:25.240Z,8.52
2017-02-23T08:49:05.951Z,8.51
2017-02-23T08:49:46.715Z,8.55
2017-02-23T08:50:27.629Z,8.58
2017-02-23T08:51:08.363Z,8.49
2017-02-23T08:51:49.206Z,8.48
2017-02-23T08:52:29.937Z,8.64
2017-02-23T08:53:10.688Z,8.63
2017-02-23T08:53:51.457Z,8.66
2017-02-23T08:54:32.237Z,8.63
2017-02-23T08:55:12.904Z,8.63
2017-02-23T08:55:53.554Z,8.67
2017-02-23T08:56:34.330Z,8.63
2017-02-23T08:57:15.235Z,8.64
2017-02-23T08:57:55.866Z,8.66
2017-02-23T08:58:36.661Z,8.66
2017-02-23T08:59:17.543Z,8.58
2017-02-23T08:59:58.422Z,8.64
2017-02-23T09:00:39.293Z,8.64
2017-02-23T09:01:20.094Z,8.66
2017-02-23T09:02:00.839Z,8.6
2017-02-23T09:02:41.546Z,8.64
2017-02-23T09:03:22.248Z,8.63
2017-02-23T09:04:02.884Z,8.67
2017-02-23T09:04:43.497Z,8.66
2017-02-23T09:05:24.081Z,8.64
2017-02-23T09:06:04.735Z,8.63
2017-02-23T09:06:45.408Z,8.61
2017-02-23T09:07:26.019Z,8.64
2017-02-23T09:08:06.689Z,8.64
2017-02-23T09:08:47.274Z,8.64
2017-02-23T09:09:27.912Z,8.6
2017-02-23T09:10:09.602Z,8.61
2017-02-23T09:10:50.178Z,8.66
2017-02-23T09:11:30.725Z,8.64
2017-02-23T09:12:11.305Z,8.67
2017-02-23T09:12:51.901Z,8.63
2017-02-23T09:13:32.616Z,8.64
2017-02-23T09:14:13.235Z,8.6
2017-02-23T09:14:53.842Z,8.63
2017-02-23T09:15:34.458Z,8.63
2017-02-23T09:16:15.027Z,8.66
2017-02-23T09:16:55.665Z,8.6
2017-02-23T09:17:36.263Z,8.6
2017-02-23T09:18:16.814Z,8.64
2017-02-23T09:18:57.394Z,8.6
2017-02-23T09:19:37.972Z,8.56
2017-02-23T09:20:18.662Z,8.61
2017-02-23T09:20:59.201Z,8.6
2017-02-23T09:21:39.826Z,8.63
2017-02-23T09:22:20.505Z,8.64
2017-02-23T09:23:01.221Z,8.53
2017-02-23T09:23:41.886Z,8.63
2017-02-23T09:24:22.498Z,8.6
2017-02-23T09:25:03.051Z,8.6
2017-02-23T09:25:43.624Z,8.46
2017-02-23T09:26:24.180Z,8.63
2017-02-23T09:27:04.796Z,8.58
2017-02-23T09:27:45.265Z,8.64
2017-02-23T09:28:25.941Z,8.64
2017-02-23T09:29:06.473Z,8.6
2017-02-23T09:29:47.075Z,8.63
2017-02-23T09:30:27.611Z,8.63
2017-02-23T09:31:08.214Z,8.61
2017-02-23T09:31:48.801Z,8.66
2017-02-23T09:32:29.345Z,8.6
2017-02-23T09:33:09.903Z,8.63
2017-02-23T09:33:50.524Z,8.61
2017-02-23T09:34:32.093Z,8.66
2017-02-23T09:35:12.780Z,8.73
2017-02-23T09:35:53.456Z,8.66
2017-02-23T09:36:34.045Z,8.63
2017-02-23T09:37:14.671Z,8.67
2017-02-23T09:37:55.222Z,8.74
2017-02-23T09:38:37.813Z,8.64
2017-02-23T09:39:18.395Z,8.67
2017-02-23T09:39:58.944Z,8.67
2017-02-23T09:40:39.561Z,8.67
2017-02-23T09:41:20.144Z,8.7
2017-02-23T09:42:00.736Z,8.71
2017-02-23T09:42:41.394Z,8.76
2017-02-23T09:43:22.982Z,8.67
2017-02-23T09:44:03.584Z,8.71
2017-02-23T09:44:44.241Z,8.71
2017-02-23T09:45:24.852Z,8.67
2017-02-23T09:46:05.407Z,8.69
2017-02-23T09:46:45.974Z,8.74
2017-02-23T09:47:26.537Z,8.67
2017-02-23T09:48:07.138Z,8.66
2017-02-23T09:48:47.726Z,8.7
2017-02-23T09:49:28.301Z,8.74
2017-02-23T09:50:08.930Z,8.69
2017-02-23T09:50:49.484Z,8.71
2017-02-23T09:51:30.041Z,8.71
2017-02-23T09:52:10.687Z,8.7
2017-02-23T09:52:51.292Z,8.71
2017-02-23T09:53:31.901Z,8.69
2017-02-23T09:54:12.631Z,8.69
2017-02-23T09:54:53.242Z,8.7
2017-02-23T09:55:33.873Z,8.64
2017-02-23T09:56:14.464Z,8.73
2017-02-23T09:56:55.048Z,8.67
2017-02-23T09:57:36.597Z,8.69
2017-02-23T09:58:17.159Z,8.73
2017-02-23T09:58:57.842Z,8.64
2017-02-23T09:59:38.420Z,8.67
2017-02-23T10:00:18.977Z,8.63
2017-02-23T10:00:59.571Z,8.7
2017-02-23T10:01:40.137Z,8.7
2017-02-23T10:02:20.728Z,8.67
2017-02-23T10:03:01.305Z,8.69
2017-02-23T10:03:41.891Z,8.64
2017-02-23T10:04:22.507Z,8.67
2017-02-23T10:05:03.117Z,8.66
2017-02-23T10:05:43.685Z,8.64
2017-02-23T10:06:24.292Z,8.67
2017-02-23T10:07:04.859Z,8.64
2017-02-23T10:07:45.459Z,8.58
2017-02-23T10:08:26.056Z,8.64
2017-02-23T10:09:06.714Z,8.7
2017-02-23T10:09:47.441Z,8.7
2017-02-23T10:10:28.033Z,8.66
2017-02-23T10:11:08.719Z,8.64
2017-02-23T10:11:49.421Z,8.49
2017-02-23T10:12:31.283Z,8.71
2017-02-23T10:13:12.119Z,8.67
2017-02-23T10:13:52.775Z,8.66
2017-02-23T10:14:33.483Z,8.69
2017-02-23T10:15:14.269Z,8.69
2017-02-23T10:15:54.945Z,8.66
2017-02-23T10:16:35.524Z,8.64
2017-02-23T10:17:16.251Z,8.69
2017-02-23T10:17:56.881Z,8.66
2017-02-23T10:18:37.495Z,8.63
2017-02-23T10:19:18.187Z,8.64
2017-02-23T10:19:58.775Z,8.63
2017-02-23T10:20:39.367Z,8.63
2017-02-23T10:21:21.049Z,8.64
2017-02-23T10:22:01.773Z,8.64
2017-02-23T10:22:44.490Z,8.71
2017-02-23T10:23:27.165Z,8.63
2017-02-23T10:24:08.819Z,8.64
2017-02-23T10:24:49.462Z,8.67
2017-02-23T10:25:30.110Z,8.61
2017-02-23T10:26:10.715Z,8.63
2017-02-23T10:26:51.337Z,8.63
2017-02-23T10:27:31.965Z,8.7
2017-02-23T10:28:12.511Z,8.64
2017-02-23T10:28:53.134Z,8.67
2017-02-23T10:29:33.732Z,8.66
2017-02-23T10:30:14.327Z,8.64
2017-02-23T10:30:54.883Z,8.63
2017-02-23T10:31:35.508Z,8.64
2017-02-23T10:32:16.061Z,8.67
2017-02-23T10:32:56.664Z,8.71
2017-02-23T10:33:37.274Z,8.63
2017-02-23T10:34:17.884Z,8.71
2017-02-23T10:34:58.429Z,8.66
2017-02-23T10:35:38.984Z,8.69
2017-02-23T10:36:19.568Z,8.67
2017-02-23T10:37:00.152Z,8.64
2017-02-23T10:37:40.748Z,8.69
2017-02-23T10:38:21.396Z,8.64
2017-02-23T10:39:02.111Z,8.76
2017-02-23T10:39:42.700Z,8.64
2017-02-23T10:40:23.363Z,8.73
2017-02-23T10:41:03.989Z,8.69
2017-02-23T10:41:44.583Z,8.66